»·PEaware :: DAL1757 KBOI-KIDA

DAL1757 :: KBOI-KIDA

FLIGHT INFORMATION

Flight Status: Arrived
Operator:
Delta Air Lines
More flights by this operator :: More flights under this callsign
Pilot: Tanner C. (11250)
Aircraft: BOEING 737-800
(B738)
More flights by this aircraft type
Origin: KBOI Boise Air Terminal/Gowen
United States
Destination: KIDA Idaho Falls Regl
United States
More flights between these airports :: More routes between these airports
Route: BOI3 BOI NATZZ
File this flight plan on PilotEdge
Remarks:
Altitude:
(Current/Filed)
21,000ft
Speed:
(Current/Filed)
400kts
Departed: 07-Jun-18 03:21 PM
Arrived: 07-Jun-18 03:58 PM
Distance/Time
Traveled:
180nm/0:37
Distance/Time
To Go:
Arrived

Flight Plot

Page will automatically refresh every two minutes.

Flight plan parsing failed; only flown route is shown


Map Options




Map Legend


Flown Route
Filed Route
Departure Airport
Arrival Airport
Navaid (VOR, NDB)
Fix

Horizontal Profiles

Position Reports

Time Latitude Longitude Heading Altitude Ground
Speed
07-Jun-18 15:03 43.566740 -116.218823 0 2852ft 0kts
07-Jun-18 15:04 43.566740 -116.218823 337 2852ft 0kts
07-Jun-18 15:05 43.566740 -116.218823 337 2852ft 0kts
07-Jun-18 15:06 43.566740 -116.218823 337 2852ft 0kts
07-Jun-18 15:07 43.566740 -116.218823 337 2852ft 0kts
07-Jun-18 15:08 43.566740 -116.218823 337 2852ft 0kts
07-Jun-18 15:09 43.566740 -116.218823 337 2852ft 0kts
07-Jun-18 15:10 43.566740 -116.218823 337 2852ft 0kts
07-Jun-18 15:11 43.566668 -116.218782 338 2852ft 2kts
07-Jun-18 15:12 43.566427 -116.218986 202 2853ft 5kts
07-Jun-18 15:13 43.563574 -116.213901 115 2859ft 28kts
07-Jun-18 15:14 43.560428 -116.203507 69 2869ft 14kts
07-Jun-18 15:15 43.560015 -116.202078 177 2871ft 0kts
07-Jun-18 15:16 43.560015 -116.202078 177 2871ft 0kts
07-Jun-18 15:17 43.560015 -116.202078 177 2871ft 0kts
07-Jun-18 15:18 43.560015 -116.202078 177 2871ft 0kts
07-Jun-18 15:19 43.560015 -116.202078 177 2871ft 0kts
07-Jun-18 15:20 43.560003 -116.202077 177 2871ft 1kts
07-Jun-18 15:21 43.565099 -116.222027 295 2878ft 165kts
07-Jun-18 15:22 43.585890 -116.291123 294 5095ft 231kts
07-Jun-18 15:23 43.636356 -116.353014 357 7990ft 286kts
07-Jun-18 15:24 43.690944 -116.289359 93 11271ft 318kts
07-Jun-18 15:25 43.632210 -116.213107 169 14526ft 322kts
07-Jun-18 15:26 43.564704 -116.130478 110 17211ft 379kts
07-Jun-18 15:27 43.558975 -115.979110 91 19733ft 417kts
07-Jun-18 15:28 43.562015 -115.812829 91 20896ft 459kts
07-Jun-18 15:29 43.565321 -115.635328 90 20887ft 467kts
07-Jun-18 15:30 43.569408 -115.457159 90 20888ft 468kts
07-Jun-18 15:31 43.573319 -115.285119 92 20943ft 469kts
07-Jun-18 15:32 43.572712 -115.107513 93 21020ft 466kts
07-Jun-18 15:33 43.571816 -114.932557 93 21022ft 466kts
07-Jun-18 15:34 43.570719 -114.756113 93 21022ft 466kts
07-Jun-18 15:35 43.569383 -114.578890 93 21023ft 466kts
07-Jun-18 15:36 43.567797 -114.403750 92 21023ft 466kts
07-Jun-18 15:37 43.566141 -114.239813 93 21020ft 466kts
07-Jun-18 15:38 43.564086 -114.062394 93 21021ft 466kts
07-Jun-18 15:39 43.561761 -113.885455 93 21022ft 466kts
07-Jun-18 15:40 43.559145 -113.707542 93 21022ft 466kts
07-Jun-18 15:41 43.556254 -113.529814 93 21023ft 466kts
07-Jun-18 15:42 43.553076 -113.351609 93 21023ft 466kts
07-Jun-18 15:43 43.549881 -113.184583 94 21020ft 466kts
07-Jun-18 15:44 43.546295 -113.010428 94 20941ft 468kts
07-Jun-18 15:45 43.570019 -112.837192 67 19292ft 462kts
07-Jun-18 15:46 43.621339 -112.681919 66 16292ft 431kts
07-Jun-18 15:47 43.668338 -112.539589 66 13045ft 391kts
07-Jun-18 15:48 43.711888 -112.406903 66 10223ft 366kts
07-Jun-18 15:49 43.734145 -112.315226 88 8987ft 318kts
07-Jun-18 15:50 43.734921 -112.207957 90 8327ft 285kts
07-Jun-18 15:51 43.735127 -112.104822 90 7832ft 250kts
07-Jun-18 15:52 43.721532 -112.020678 122 7560ft 216kts
07-Jun-18 15:53 43.681603 -111.970706 159 7281ft 200kts
07-Jun-18 15:54 43.637091 -111.962836 182 6740ft 166kts
07-Jun-18 15:55 43.596903 -111.982862 220 6062ft 158kts
07-Jun-18 15:56 43.562968 -112.020110 217 5435ft 152kts
07-Jun-18 15:57 43.530605 -112.054831 217 4987ft 140kts
07-Jun-18 15:58 43.510007 -112.076891 192 4746ft 24kts

Navigation Log

Ident Type
Flight plan parsing failed, navigation log unavailable